KR-0343 weather

Trump World Centrum Apartments Heliports
Haeundae (Busan), Busan Gwang'yeogsi, South Korea

Public forecast

Using degrees Celsius for public forecast. Weather courtesy of forecast.io.

Closest aviation weather report (METAR) to Trump World Centrum Apartments Heliports

Closest report is Gimhae International Airport, 9.6 nm (17.8 km) W. Retrieved 2019/10/22 02:00 UTC (7 minutes ago):

RKPK 220200Z 01011KT CAVOK 22/13 Q1017

Closest aviation forecast (TAF) to Trump World Centrum Apartments Heliports

Closest forecast is Gimhae International Airport, 9.6 nm (17.8 km) W. Retrieved 2019-10-22 00:00 UTC (2 hours ago):

TAF RKPK 212300Z 2200/2306 03006KT 9999 SCT030 BKN200 TX23/2207Z TN13/2221Z TEMPO 2201/2204 BKN030 BKN200